createdAt,value
2023-05-06T00:01:13.953Z,68.40
2023-05-06T00:03:41.368Z,68.43
2023-05-06T00:06:08.615Z,68.79
2023-05-06T00:08:35.930Z,67.78
2023-05-06T00:11:02.944Z,68.05
2023-05-06T00:13:29.829Z,67.94
2023-05-06T00:15:56.882Z,68.10
2023-05-06T00:18:23.807Z,68.12
2023-05-06T00:20:50.788Z,67.79
2023-05-06T00:23:17.629Z,66.96
2023-05-06T00:25:44.514Z,66.85
2023-05-06T00:28:11.422Z,66.67
2023-05-06T00:30:38.983Z,66.89
2023-05-06T00:33:05.892Z,66.48
2023-05-06T00:35:33.517Z,66.62
2023-05-06T00:38:14.527Z,66.81
2023-05-06T00:40:42.828Z,66.98
2023-05-06T00:43:10.115Z,66.51
2023-05-06T00:45:37.686Z,65.94
2023-05-06T00:48:06.721Z,66.31
2023-05-06T00:50:35.065Z,66.19
2023-05-06T00:53:04.200Z,66.01
2023-05-06T00:55:31.553Z,66.07
2023-05-06T00:57:59.101Z,65.77
2023-05-06T01:00:26.122Z,66.49
2023-05-06T01:02:53.218Z,65.75
2023-05-06T01:05:22.656Z,65.46
2023-05-06T01:08:10.665Z,65.53
2023-05-06T01:10:52.519Z,66.04
2023-05-06T01:13:40.576Z,65.79
2023-05-06T01:16:10.487Z,65.88
2023-05-06T01:18:38.761Z,65.86
2023-05-06T01:21:07.015Z,66.29
2023-05-06T01:23:53.815Z,65.99
2023-05-06T01:26:20.872Z,65.50
2023-05-06T01:28:48.042Z,65.84
2023-05-06T01:31:27.190Z,66.34
2023-05-06T01:34:07.105Z,66.63
2023-05-06T01:36:56.392Z,66.68
2023-05-06T01:39:30.081Z,67.06
2023-05-06T01:42:00.382Z,66.74
2023-05-06T01:44:29.045Z,66.36
2023-05-06T01:46:57.047Z,66.54
2023-05-06T01:49:26.415Z,66.40
2023-05-06T01:51:55.226Z,67.46
2023-05-06T01:54:23.360Z,67.13
2023-05-06T01:56:50.238Z,67.20
2023-05-06T01:59:17.126Z,66.68
2023-05-06T02:01:43.952Z,66.43
2023-05-06T02:04:10.947Z,67.13
2023-05-06T02:06:38.313Z,66.94
2023-05-06T02:09:05.998Z,67.24
2023-05-06T02:11:37.497Z,66.13
2023-05-06T02:14:06.974Z,65.67
2023-05-06T02:16:35.164Z,65.19
2023-05-06T02:19:02.193Z,65.70
2023-05-06T02:21:29.085Z,66.16
2023-05-06T02:23:55.915Z,65.47
2023-05-06T02:26:22.763Z,65.56
2023-05-06T02:28:49.683Z,64.76
2023-05-06T02:31:16.863Z,64.57
2023-05-06T02:33:45.407Z,64.32
2023-05-06T02:36:12.273Z,64.33
2023-05-06T02:38:39.133Z,64.50
2023-05-06T02:41:05.987Z,64.46
2023-05-06T02:43:32.810Z,64.71
2023-05-06T02:45:59.918Z,63.94
2023-05-06T02:48:26.842Z,64.71
2023-05-06T02:50:53.667Z,64.39
2023-05-06T02:53:20.616Z,64.03
2023-05-06T02:55:47.555Z,63.68
2023-05-06T02:58:14.562Z,64.08
2023-05-06T03:00:41.452Z,63.44
2023-05-06T03:03:09.181Z,62.89
2023-05-06T03:05:36.108Z,62.93
2023-05-06T03:08:02.972Z,62.81
2023-05-06T03:10:30.850Z,61.42
2023-05-06T03:12:59.090Z,59.97
2023-05-06T03:15:26.728Z,59.84
2023-05-06T03:17:54.301Z,57.70
2023-05-06T03:20:21.846Z,52.71
2023-05-06T03:22:52.654Z,49.21
2023-05-06T03:25:21.333Z,46.54
2023-05-06T03:27:48.651Z,45.23
2023-05-06T03:30:19.815Z,44.59
2023-05-06T03:32:48.673Z,43.62
2023-05-06T03:35:21.355Z,43.07
2023-05-06T03:37:52.906Z,41.17
2023-05-06T03:40:22.017Z,40.15
2023-05-06T03:42:49.280Z,43.44
2023-05-06T03:45:16.846Z,42.82
2023-05-06T03:47:45.121Z,43.71
2023-05-06T03:50:13.368Z,44.63
2023-05-06T03:52:41.011Z,46.35
2023-05-06T03:55:08.584Z,42.60
2023-05-06T03:57:36.418Z,40.83
2023-05-06T04:00:05.613Z,39.08
2023-05-06T04:02:43.033Z,37.86
2023-05-06T04:05:15.064Z,41.12
2023-05-06T04:07:42.315Z,41.88
2023-05-06T04:10:09.532Z,42.79
2023-05-06T04:12:37.918Z,43.75
2023-05-06T04:15:07.086Z,44.99
2023-05-06T04:17:34.651Z,46.07
2023-05-06T04:20:02.102Z,47.51
2023-05-06T04:22:29.208Z,45.81
2023-05-06T04:24:56.547Z,47.12
2023-05-06T04:27:23.887Z,47.34
2023-05-06T04:29:51.133Z,47.76
2023-05-06T04:32:18.242Z,48.08
2023-05-06T04:34:47.474Z,49.47
2023-05-06T04:37:16.049Z,49.25
2023-05-06T04:39:49.096Z,49.28
2023-05-06T04:42:16.782Z,48.57
2023-05-06T04:44:51.595Z,50.56
2023-05-06T04:47:22.919Z,50.29
2023-05-06T04:49:51.881Z,49.31
2023-05-06T04:52:19.257Z,50.43
2023-05-06T04:54:46.359Z,50.31
2023-05-06T04:57:13.379Z,51.64
2023-05-06T04:59:44.594Z,51.30
2023-05-06T05:02:12.161Z,50.03
2023-05-06T05:04:41.595Z,50.68
2023-05-06T05:07:08.974Z,51.20
2023-05-06T05:09:36.378Z,49.51
2023-05-06T05:12:22.067Z,50.35
2023-05-06T05:14:51.256Z,48.85
2023-05-06T05:17:20.968Z,48.53
2023-05-06T05:19:49.732Z,49.65
2023-05-06T05:22:17.589Z,48.59
2023-05-06T05:25:03.908Z,48.12
2023-05-06T05:27:32.105Z,47.42
2023-05-06T05:29:58.955Z,47.71
2023-05-06T05:32:26.369Z,46.68
2023-05-06T05:34:53.301Z,46.54
2023-05-06T05:37:20.287Z,46.48
2023-05-06T05:39:47.630Z,45.00
2023-05-06T05:42:16.528Z,44.53
2023-05-06T05:44:45.160Z,43.96
2023-05-06T05:47:12.508Z,41.52
2023-05-06T05:49:58.468Z,40.86
2023-05-06T05:52:25.660Z,41.67
2023-05-06T05:54:52.820Z,41.44
2023-05-06T05:57:19.888Z,41.31
2023-05-06T05:59:47.132Z,39.48
2023-05-06T06:02:14.165Z,38.70
2023-05-06T06:04:41.552Z,36.70
2023-05-06T06:07:27.041Z,35.77
2023-05-06T06:10:12.549Z,35.71
2023-05-06T06:12:39.857Z,36.40
2023-05-06T06:15:08.093Z,37.30
2023-05-06T06:17:38.267Z,36.68
2023-05-06T06:20:07.444Z,36.55
2023-05-06T06:22:34.399Z,35.66
2023-05-06T06:25:01.406Z,35.42
2023-05-06T06:27:28.410Z,34.60
2023-05-06T06:29:55.676Z,33.88
2023-05-06T06:32:30.957Z,33.63
2023-05-06T06:35:08.449Z,34.17
2023-05-06T06:37:42.984Z,34.01
2023-05-06T06:40:37.898Z,34.03
2023-05-06T06:43:11.252Z,32.25
2023-05-06T06:46:03.699Z,31.88
2023-05-06T06:48:33.096Z,33.47
2023-05-06T06:51:00.038Z,33.83
2023-05-06T06:53:29.313Z,33.45
2023-05-06T06:56:00.725Z,33.35
2023-05-06T06:58:28.112Z,31.23
2023-05-06T07:00:55.212Z,32.98
2023-05-06T07:03:27.547Z,32.76
2023-05-06T07:05:54.491Z,31.34
2023-05-06T07:08:21.331Z,30.04
2023-05-06T07:10:51.050Z,30.11
2023-05-06T07:13:20.537Z,28.12
2023-05-06T07:15:49.234Z,28.71
2023-05-06T07:18:16.379Z,29.00
2023-05-06T07:20:43.329Z,30.08
2023-05-06T07:23:10.184Z,28.53
2023-05-06T07:25:39.507Z,28.13
2023-05-06T07:28:08.670Z,28.73
2023-05-06T07:30:38.291Z,28.93
2023-05-06T07:33:05.312Z,30.01
2023-05-06T07:35:32.291Z,28.49
2023-05-06T07:37:59.168Z,28.15
2023-05-06T07:40:26.253Z,28.60
2023-05-06T07:42:53.168Z,29.02
2023-05-06T07:45:20.014Z,27.95
2023-05-06T07:47:46.948Z,28.59
2023-05-06T07:50:14.152Z,29.67
2023-05-06T07:52:41.181Z,29.26
2023-05-06T07:55:12.131Z,28.83
2023-05-06T07:57:39.264Z,28.16
2023-05-06T08:00:07.351Z,25.96
2023-05-06T08:02:39.667Z,25.63
2023-05-06T08:05:07.172Z,25.49
2023-05-06T08:07:34.164Z,26.12
2023-05-06T08:10:01.429Z,25.38
2023-05-06T08:12:28.413Z,26.61
2023-05-06T08:14:56.465Z,25.49
2023-05-06T08:17:28.144Z,25.48
2023-05-06T08:19:55.303Z,25.93
2023-05-06T08:22:22.348Z,24.13
2023-05-06T08:24:50.490Z,24.38
2023-05-06T08:27:17.361Z,25.30
2023-05-06T08:29:45.410Z,25.40
2023-05-06T08:32:12.385Z,24.85
2023-05-06T08:34:41.758Z,24.27
2023-05-06T08:37:17.025Z,25.70
2023-05-06T08:39:46.589Z,25.67
2023-05-06T08:42:13.565Z,25.95
2023-05-06T08:44:40.567Z,24.75
2023-05-06T08:47:08.698Z,25.13
2023-05-06T08:49:36.214Z,25.30
2023-05-06T08:52:10.105Z,24.67
2023-05-06T08:54:38.449Z,24.50
2023-05-06T08:57:06.147Z,23.55
2023-05-06T08:59:35.955Z,24.30
2023-05-06T09:02:04.710Z,25.26
2023-05-06T09:04:32.047Z,25.90
2023-05-06T09:06:59.336Z,27.94
2023-05-06T09:09:26.462Z,27.07
2023-05-06T09:11:53.311Z,26.74
2023-05-06T09:14:21.438Z,26.72
2023-05-06T09:16:50.231Z,26.32
2023-05-06T09:19:19.441Z,26.38
2023-05-06T09:21:48.742Z,24.70
2023-05-06T09:24:17.065Z,25.47
2023-05-06T09:26:45.603Z,24.82
2023-05-06T09:29:13.009Z,24.79
2023-05-06T09:31:44.907Z,23.65
2023-05-06T09:34:12.813Z,23.84
2023-05-06T09:36:39.841Z,24.13
2023-05-06T09:39:07.301Z,24.60
2023-05-06T09:41:34.175Z,24.09
2023-05-06T09:44:01.548Z,23.96
2023-05-06T09:46:29.172Z,22.91
2023-05-06T09:48:57.193Z,22.96
2023-05-06T09:51:24.140Z,23.12
2023-05-06T09:53:52.585Z,23.29
2023-05-06T09:56:21.126Z,23.35
2023-05-06T09:58:52.475Z,22.78
2023-05-06T10:01:32.841Z,23.21
2023-05-06T10:04:09.366Z,23.27
2023-05-06T10:06:39.825Z,23.02
2023-05-06T10:09:08.764Z,23.31
2023-05-06T10:11:36.241Z,23.12
2023-05-06T10:14:04.214Z,23.91
2023-05-06T10:16:33.807Z,24.26
2023-05-06T10:19:02.920Z,25.20
2023-05-06T10:21:33.305Z,25.37
2023-05-06T10:24:10.985Z,25.01
2023-05-06T10:26:41.470Z,24.53
2023-05-06T10:29:11.433Z,24.70
2023-05-06T10:31:49.154Z,24.49
2023-05-06T10:34:19.528Z,24.36
2023-05-06T10:36:47.959Z,24.96
2023-05-06T10:39:15.419Z,24.22
2023-05-06T10:41:42.398Z,24.60
2023-05-06T10:44:09.500Z,25.51
2023-05-06T10:46:57.402Z,25.84
2023-05-06T10:49:24.405Z,25.11
2023-05-06T10:52:14.779Z,25.22
2023-05-06T10:54:49.455Z,26.75
2023-05-06T10:57:16.874Z,26.21
2023-05-06T10:59:46.548Z,27.13
2023-05-06T11:02:14.502Z,27.98
2023-05-06T11:04:41.840Z,28.03
2023-05-06T11:07:12.156Z,28.11
2023-05-06T11:10:04.854Z,27.73
2023-05-06T11:12:48.394Z,27.78
2023-05-06T11:15:25.726Z,28.11
2023-05-06T11:17:56.744Z,28.37
2023-05-06T11:20:25.575Z,29.32
2023-05-06T11:22:53.161Z,29.16
2023-05-06T11:25:39.725Z,29.38
2023-05-06T11:28:14.912Z,28.98
2023-05-06T11:30:44.499Z,28.86
2023-05-06T11:33:18.707Z,28.51
2023-05-06T11:35:45.826Z,28.70
2023-05-06T11:38:12.829Z,28.90
2023-05-06T11:40:41.995Z,28.37
2023-05-06T11:43:16.324Z,28.33
2023-05-06T11:45:48.756Z,27.92
2023-05-06T11:48:16.649Z,28.36
2023-05-06T11:50:48.511Z,28.61
2023-05-06T11:53:25.046Z,28.03
2023-05-06T11:55:53.768Z,27.53
2023-05-06T11:58:25.510Z,28.05
2023-05-06T12:00:58.471Z,27.07
2023-05-06T12:03:26.902Z,27.16
2023-05-06T12:05:54.195Z,26.77
2023-05-06T12:08:32.034Z,26.69
2023-05-06T12:11:07.240Z,26.78
2023-05-06T12:13:36.331Z,26.06
2023-05-06T12:16:05.768Z,25.98
2023-05-06T12:18:33.330Z,25.58
2023-05-06T12:21:02.540Z,25.51
2023-05-06T12:23:56.354Z,25.65
2023-05-06T12:26:23.677Z,24.63
2023-05-06T12:29:07.805Z,24.72
2023-05-06T12:31:35.200Z,25.12
2023-05-06T12:34:05.775Z,24.94
2023-05-06T12:36:32.741Z,24.22
2023-05-06T12:39:20.384Z,23.78
2023-05-06T12:41:47.868Z,23.32
2023-05-06T12:44:38.997Z,23.32
2023-05-06T12:47:08.564Z,23.34
2023-05-06T12:49:46.746Z,22.53
2023-05-06T12:52:14.390Z,22.49
2023-05-06T12:54:41.211Z,22.64
2023-05-06T12:57:08.279Z,23.02
2023-05-06T12:59:36.512Z,21.99
2023-05-06T13:02:04.822Z,22.05
2023-05-06T13:04:32.042Z,21.86
2023-05-06T13:07:00.396Z,22.70
2023-05-06T13:09:45.831Z,22.64
2023-05-06T13:12:13.018Z,22.83
2023-05-06T13:14:58.803Z,22.91
2023-05-06T13:17:44.518Z,22.27
2023-05-06T13:20:12.418Z,22.24
2023-05-06T13:22:53.283Z,22.35
2023-05-06T13:25:21.088Z,22.67
2023-05-06T13:27:48.084Z,22.92
2023-05-06T13:30:33.504Z,22.08
2023-05-06T13:33:00.500Z,22.20
2023-05-06T13:35:46.187Z,23.24
2023-05-06T13:38:13.212Z,23.18
2023-05-06T13:40:40.078Z,22.77
2023-05-06T13:43:08.198Z,22.68
2023-05-06T13:45:35.051Z,22.59
2023-05-06T13:48:20.373Z,21.80
2023-05-06T13:50:47.546Z,22.12
2023-05-06T13:53:14.794Z,22.02
2023-05-06T13:55:42.364Z,22.15
2023-05-06T13:58:09.316Z,22.66
2023-05-06T14:00:36.360Z,22.88
2023-05-06T14:03:21.913Z,22.43
2023-05-06T14:05:48.861Z,23.15
2023-05-06T14:08:15.718Z,22.17
2023-05-06T14:10:44.894Z,22.88
2023-05-06T14:13:30.726Z,22.45
2023-05-06T14:15:58.228Z,22.17
2023-05-06T14:18:26.795Z,22.41
2023-05-06T14:21:12.319Z,21.87
2023-05-06T14:23:39.243Z,21.74
2023-05-06T14:26:08.345Z,21.17
2023-05-06T14:28:35.523Z,20.94
2023-05-06T14:31:02.367Z,20.10
2023-05-06T14:33:29.268Z,20.76
2023-05-06T14:35:56.158Z,21.39
2023-05-06T14:38:23.084Z,19.76
2023-05-06T14:40:52.992Z,20.95
2023-05-06T14:43:20.137Z,20.66
2023-05-06T14:45:47.193Z,21.07
2023-05-06T14:48:14.181Z,21.16
2023-05-06T14:50:41.141Z,20.70
2023-05-06T14:53:08.112Z,20.37
2023-05-06T14:55:35.723Z,20.71
2023-05-06T14:58:02.701Z,21.04
2023-05-06T15:00:29.757Z,21.19
2023-05-06T15:02:56.778Z,21.52
2023-05-06T15:05:23.745Z,21.92
2023-05-06T15:07:50.678Z,21.67
2023-05-06T15:10:17.638Z,21.61
2023-05-06T15:12:44.707Z,21.73
2023-05-06T15:15:11.888Z,22.19
2023-05-06T15:17:40.317Z,21.95
2023-05-06T15:20:07.900Z,22.26
2023-05-06T15:22:36.263Z,22.45
2023-05-06T15:25:05.139Z,22.34
2023-05-06T15:27:32.002Z,23.17
2023-05-06T15:29:58.881Z,22.91
2023-05-06T15:32:25.986Z,23.17
2023-05-06T15:34:53.023Z,23.14
2023-05-06T15:37:19.828Z,23.09
2023-05-06T15:39:46.633Z,22.80
2023-05-06T15:42:13.842Z,22.68
2023-05-06T15:44:40.793Z,23.02
2023-05-06T15:47:07.816Z,23.61
2023-05-06T15:49:51.406Z,23.01
2023-05-06T15:52:21.373Z,24.20
2023-05-06T15:54:49.904Z,23.82
2023-05-06T15:57:17.752Z,24.84
2023-05-06T15:59:44.808Z,25.31
2023-05-06T16:04:41.790Z,25.78
2023-05-06T16:07:08.937Z,25.93
2023-05-06T16:09:36.230Z,25.86
2023-05-06T16:12:03.201Z,25.49
2023-05-06T16:14:30.036Z,25.89
2023-05-06T16:16:58.610Z,25.15
2023-05-06T16:19:25.587Z,25.45
2023-05-06T16:21:52.481Z,25.63
2023-05-06T16:24:19.423Z,25.97
2023-05-06T16:26:46.255Z,26.14
2023-05-06T16:29:13.177Z,26.30
2023-05-06T16:31:40.547Z,26.48
2023-05-06T16:34:07.392Z,26.38
2023-05-06T16:36:34.343Z,26.25
2023-05-06T16:39:01.238Z,26.70
2023-05-06T16:41:28.187Z,26.59
2023-05-06T16:43:55.049Z,26.78
2023-05-06T16:46:24.716Z,27.17
2023-05-06T16:48:53.699Z,27.02
2023-05-06T16:51:20.751Z,27.20
2023-05-06T16:53:47.653Z,27.48
2023-05-06T16:56:14.574Z,27.46
2023-05-06T16:58:41.403Z,27.58
2023-05-06T17:01:09.656Z,27.51
2023-05-06T17:03:36.677Z,27.90
2023-05-06T17:06:04.303Z,27.63
2023-05-06T17:08:36.071Z,28.00
2023-05-06T17:11:06.755Z,27.95
2023-05-06T17:13:34.447Z,28.28
2023-05-06T17:16:01.377Z,27.84
2023-05-06T17:18:28.238Z,28.40
2023-05-06T17:20:57.040Z,28.26
2023-05-06T17:23:24.731Z,28.73
2023-05-06T17:25:51.886Z,28.35
2023-05-06T17:28:19.142Z,28.82
2023-05-06T17:30:48.682Z,28.54
2023-05-06T17:33:15.600Z,29.08
2023-05-06T17:35:42.536Z,28.94
2023-05-06T17:38:11.997Z,29.24
2023-05-06T17:40:39.014Z,29.36
2023-05-06T17:43:06.188Z,29.61
2023-05-06T17:45:33.199Z,29.49
2023-05-06T17:48:00.142Z,29.92
2023-05-06T17:50:27.282Z,30.02
2023-05-06T17:52:54.275Z,30.09
2023-05-06T17:55:21.657Z,29.84
2023-05-06T17:57:49.316Z,30.14
2023-05-06T18:00:17.028Z,29.80
2023-05-06T18:02:44.481Z,30.19
2023-05-06T18:05:12.066Z,30.66
2023-05-06T18:07:39.524Z,30.73
2023-05-06T18:10:07.101Z,30.45
2023-05-06T18:12:34.106Z,30.62
2023-05-06T18:15:01.006Z,31.08
2023-05-06T18:17:27.931Z,30.50
2023-05-06T18:19:55.292Z,30.84
2023-05-06T18:22:22.173Z,30.73
2023-05-06T18:24:49.028Z,31.12
2023-05-06T18:27:15.959Z,30.82
2023-05-06T18:29:42.760Z,31.46
2023-05-06T18:32:09.720Z,31.61
2023-05-06T18:34:36.661Z,31.52
2023-05-06T18:37:03.532Z,32.17
2023-05-06T18:39:30.656Z,31.89
2023-05-06T18:41:57.585Z,33.06
2023-05-06T18:44:24.531Z,32.22
2023-05-06T18:46:51.450Z,32.32
2023-05-06T18:49:18.403Z,32.77
2023-05-06T18:51:45.538Z,33.15
2023-05-06T18:54:13.998Z,33.21
2023-05-06T18:56:41.916Z,33.29
2023-05-06T18:59:08.987Z,33.32
2023-05-06T19:01:35.895Z,33.67
2023-05-06T19:04:02.839Z,34.10
2023-05-06T19:06:30.130Z,34.20
2023-05-06T19:08:57.043Z,34.28
2023-05-06T19:11:24.163Z,34.64
2023-05-06T19:13:51.148Z,34.77
2023-05-06T19:16:18.288Z,34.94
2023-05-06T19:18:45.199Z,34.44
2023-05-06T19:21:12.675Z,34.87
2023-05-06T19:23:39.674Z,34.75
2023-05-06T19:26:07.118Z,35.07
2023-05-06T19:28:34.400Z,34.87
2023-05-06T19:31:01.893Z,34.79
2023-05-06T19:33:29.059Z,35.80
2023-05-06T19:35:55.979Z,35.83
2023-05-06T19:38:22.900Z,35.58
2023-05-06T19:40:49.755Z,35.71
2023-05-06T19:43:16.609Z,35.43
2023-05-06T19:45:45.965Z,35.58
2023-05-06T19:48:12.753Z,36.30
2023-05-06T19:50:39.616Z,35.64
2023-05-06T19:53:08.281Z,35.83
2023-05-06T19:55:35.285Z,36.31
2023-05-06T19:58:02.154Z,36.21
2023-05-06T20:00:29.325Z,35.88
2023-05-06T20:03:00.278Z,36.41
2023-05-06T20:05:28.124Z,36.61
2023-05-06T20:07:55.065Z,37.10
2023-05-06T20:10:22.135Z,36.58
2023-05-06T20:12:49.009Z,37.27
2023-05-06T20:15:16.032Z,37.51
2023-05-06T20:17:42.907Z,37.61
2023-05-06T20:20:10.168Z,37.66
2023-05-06T20:22:38.919Z,36.79
2023-05-06T20:25:09.397Z,37.98
2023-05-06T20:27:36.482Z,38.11
2023-05-06T20:30:03.607Z,37.57
2023-05-06T20:32:31.487Z,37.54
2023-05-06T20:34:58.456Z,38.06
2023-05-06T20:37:25.560Z,38.14
2023-05-06T20:39:52.499Z,37.25
2023-05-06T20:42:19.353Z,38.20
2023-05-06T20:44:46.285Z,38.02
2023-05-06T20:47:13.154Z,37.94
2023-05-06T20:49:40.052Z,37.42
2023-05-06T20:52:07.252Z,37.59
2023-05-06T20:54:34.866Z,37.48
2023-05-06T20:57:01.878Z,37.30
2023-05-06T20:59:29.415Z,37.62
2023-05-06T21:01:56.470Z,37.96
2023-05-06T21:04:25.253Z,37.45
2023-05-06T21:06:52.085Z,37.65
2023-05-06T21:09:18.977Z,37.38
2023-05-06T21:11:45.896Z,37.92
2023-05-06T21:14:12.847Z,38.10
2023-05-06T21:16:40.651Z,37.68
2023-05-06T21:19:07.776Z,37.65
2023-05-06T21:21:34.735Z,37.30
2023-05-06T21:24:01.970Z,37.91
2023-05-06T21:26:30.722Z,37.36
2023-05-06T21:28:57.603Z,37.26
2023-05-06T21:31:24.737Z,37.61
2023-05-06T21:33:55.492Z,38.14
2023-05-06T21:36:22.504Z,38.16
2023-05-06T21:39:08.749Z,37.96
2023-05-06T21:41:36.239Z,37.90
2023-05-06T21:44:04.189Z,38.51
2023-05-06T21:46:31.970Z,37.85
2023-05-06T21:48:59.589Z,37.27
2023-05-06T21:51:31.984Z,38.31
2023-05-06T21:53:59.132Z,38.18
2023-05-06T21:56:26.026Z,37.96
2023-05-06T21:58:53.924Z,38.71
2023-05-06T22:01:20.929Z,38.39
2023-05-06T22:03:48.447Z,38.23
2023-05-06T22:06:15.427Z,38.35
2023-05-06T22:08:42.686Z,38.80
2023-05-06T22:11:09.658Z,38.77
2023-05-06T22:13:36.733Z,38.50
2023-05-06T22:16:03.709Z,38.59
2023-05-06T22:18:30.664Z,38.89
2023-05-06T22:20:57.602Z,37.97
2023-05-06T22:23:25.166Z,38.97
2023-05-06T22:25:52.079Z,38.95
2023-05-06T22:28:19.573Z,38.78
2023-05-06T22:30:47.301Z,38.40
2023-05-06T22:33:14.922Z,38.65
2023-05-06T22:35:41.905Z,38.45
2023-05-06T22:38:08.986Z,38.67
2023-05-06T22:40:35.897Z,38.95
2023-05-06T22:43:02.843Z,38.47
2023-05-06T22:45:29.780Z,38.92
2023-05-06T22:47:56.770Z,38.26
2023-05-06T22:50:23.742Z,38.41
2023-05-06T22:52:51.188Z,38.58
2023-05-06T22:55:18.021Z,37.89
2023-05-06T22:57:45.005Z,38.18
2023-05-06T23:00:12.265Z,38.72
2023-05-06T23:02:39.266Z,38.58
2023-05-06T23:05:06.631Z,39.42
2023-05-06T23:07:33.591Z,39.47
2023-05-06T23:10:00.429Z,39.28
2023-05-06T23:12:31.506Z,39.28
2023-05-06T23:14:58.496Z,39.64
2023-05-06T23:17:25.362Z,38.86
2023-05-06T23:19:52.711Z,39.18
2023-05-06T23:22:19.621Z,38.89
2023-05-06T23:24:46.627Z,39.41
2023-05-06T23:27:13.482Z,39.48
2023-05-06T23:29:40.390Z,39.02
2023-05-06T23:32:07.282Z,39.00
2023-05-06T23:34:34.294Z,39.07
2023-05-06T23:37:01.308Z,39.01
2023-05-06T23:39:28.167Z,39.64
2023-05-06T23:41:54.988Z,39.55
2023-05-06T23:44:23.012Z,39.57
2023-05-06T23:46:50.003Z,39.87
2023-05-06T23:49:17.092Z,40.41
2023-05-06T23:51:43.956Z,40.20
2023-05-06T23:54:10.890Z,39.54
2023-05-06T23:56:37.680Z,40.13
2023-05-06T23:59:04.627Z,40.49
